sensor_id;sensor_type;location;lat;lon;timestamp;P1;durP1;ratioP1;P2;durP2;ratioP2
11616;SDS011;5864;52.998;9.068;2023-11-21T00:00:49;20.47;;;10.43;;
11616;SDS011;5864;52.998;9.068;2023-11-21T00:03:34;21.20;;;10.90;;
11616;SDS011;5864;52.998;9.068;2023-11-21T00:06:21;15.03;;;9.77;;
11616;SDS011;5864;52.998;9.068;2023-11-21T00:09:08;21.87;;;10.30;;
11616;SDS011;5864;52.998;9.068;2023-11-21T00:11:57;14.73;;;8.43;;
11616;SDS011;5864;52.998;9.068;2023-11-21T00:14:42;21.67;;;10.03;;
11616;SDS011;5864;52.998;9.068;2023-11-21T00:17:29;18.20;;;10.07;;
11616;SDS011;5864;52.998;9.068;2023-11-21T00:20:14;20.50;;;10.33;;
11616;SDS011;5864;52.998;9.068;2023-11-21T00:23:00;13.33;;;9.00;;
11616;SDS011;5864;52.998;9.068;2023-11-21T00:25:48;18.57;;;10.33;;
11616;SDS011;5864;52.998;9.068;2023-11-21T00:28:34;16.80;;;9.80;;
11616;SDS011;5864;52.998;9.068;2023-11-21T00:31:20;19.13;;;10.20;;
11616;SDS011;5864;52.998;9.068;2023-11-21T00:34:05;18.60;;;9.60;;
11616;SDS011;5864;52.998;9.068;2023-11-21T00:36:51;22.60;;;11.00;;
11616;SDS011;5864;52.998;9.068;2023-11-21T00:39:36;19.53;;;10.23;;
11616;SDS011;5864;52.998;9.068;2023-11-21T00:42:24;21.03;;;10.70;;
11616;SDS011;5864;52.998;9.068;2023-11-21T00:45:09;17.40;;;9.73;;
11616;SDS011;5864;52.998;9.068;2023-11-21T00:47:56;20.73;;;11.67;;
11616;SDS011;5864;52.998;9.068;2023-11-21T00:50:41;25.40;;;12.53;;
11616;SDS011;5864;52.998;9.068;2023-11-21T00:53:28;22.77;;;11.00;;
11616;SDS011;5864;52.998;9.068;2023-11-21T00:56:13;21.43;;;11.50;;
11616;SDS011;5864;52.998;9.068;2023-11-21T00:59:01;25.00;;;12.00;;
11616;SDS011;5864;52.998;9.068;2023-11-21T01:01:46;23.07;;;11.37;;
11616;SDS011;5864;52.998;9.068;2023-11-21T01:04:33;19.90;;;11.00;;
11616;SDS011;5864;52.998;9.068;2023-11-21T01:07:18;25.17;;;11.53;;
11616;SDS011;5864;52.998;9.068;2023-11-21T01:10:05;18.83;;;10.70;;
11616;SDS011;5864;52.998;9.068;2023-11-21T01:12:50;21.00;;;12.30;;
11616;SDS011;5864;52.998;9.068;2023-11-21T01:15:37;25.27;;;11.80;;
11616;SDS011;5864;52.998;9.068;2023-11-21T01:18:24;23.23;;;12.50;;
11616;SDS011;5864;52.998;9.068;2023-11-21T01:21:10;22.40;;;11.70;;
11616;SDS011;5864;52.998;9.068;2023-11-21T01:23:55;22.73;;;11.43;;
11616;SDS011;5864;52.998;9.068;2023-11-21T01:26:41;24.77;;;12.20;;
11616;SDS011;5864;52.998;9.068;2023-11-21T01:29:28;24.20;;;12.67;;
11616;SDS011;5864;52.998;9.068;2023-11-21T01:32:15;25.43;;;13.47;;
11616;SDS011;5864;52.998;9.068;2023-11-21T01:35:01;21.07;;;11.93;;
11616;SDS011;5864;52.998;9.068;2023-11-21T01:37:46;20.00;;;12.00;;
11616;SDS011;5864;52.998;9.068;2023-11-21T01:40:33;22.17;;;12.17;;
11616;SDS011;5864;52.998;9.068;2023-11-21T01:43:18;28.03;;;13.33;;
11616;SDS011;5864;52.998;9.068;2023-11-21T01:46:04;21.60;;;13.33;;
11616;SDS011;5864;52.998;9.068;2023-11-21T01:48:51;21.70;;;13.33;;
11616;SDS011;5864;52.998;9.068;2023-11-21T01:51:39;19.33;;;12.57;;
11616;SDS011;5864;52.998;9.068;2023-11-21T01:54:24;26.70;;;12.37;;
11616;SDS011;5864;52.998;9.068;2023-11-21T01:57:11;24.97;;;13.27;;
11616;SDS011;5864;52.998;9.068;2023-11-21T01:59:56;25.03;;;13.50;;
11616;SDS011;5864;52.998;9.068;2023-11-21T02:02:54;24.17;;;13.20;;
11616;SDS011;5864;52.998;9.068;2023-11-21T02:05:41;21.70;;;14.03;;
11616;SDS011;5864;52.998;9.068;2023-11-21T02:08:28;26.43;;;14.50;;
11616;SDS011;5864;52.998;9.068;2023-11-21T02:11:13;25.50;;;14.43;;
11616;SDS011;5864;52.998;9.068;2023-11-21T02:14:00;25.73;;;14.43;;
11616;SDS011;5864;52.998;9.068;2023-11-21T02:16:45;19.47;;;12.67;;
11616;SDS011;5864;52.998;9.068;2023-11-21T02:19:33;22.23;;;13.47;;
11616;SDS011;5864;52.998;9.068;2023-11-21T02:22:19;19.90;;;12.80;;
11616;SDS011;5864;52.998;9.068;2023-11-21T02:25:07;20.70;;;12.43;;
11616;SDS011;5864;52.998;9.068;2023-11-21T02:27:54;19.63;;;12.67;;
11616;SDS011;5864;52.998;9.068;2023-11-21T02:30:39;17.50;;;11.87;;
11616;SDS011;5864;52.998;9.068;2023-11-21T02:33:26;21.23;;;12.23;;
11616;SDS011;5864;52.998;9.068;2023-11-21T02:36:11;23.03;;;12.90;;
11616;SDS011;5864;52.998;9.068;2023-11-21T02:38:57;25.33;;;13.27;;
11616;SDS011;5864;52.998;9.068;2023-11-21T02:41:44;22.93;;;12.30;;
11616;SDS011;5864;52.998;9.068;2023-11-21T02:44:31;22.33;;;12.07;;
11616;SDS011;5864;52.998;9.068;2023-11-21T02:47:16;18.30;;;10.93;;
11616;SDS011;5864;52.998;9.068;2023-11-21T02:50:03;21.03;;;12.63;;
11616;SDS011;5864;52.998;9.068;2023-11-21T02:52:50;16.10;;;10.87;;
11616;SDS011;5864;52.998;9.068;2023-11-21T02:55:36;18.07;;;10.97;;
11616;SDS011;5864;52.998;9.068;2023-11-21T02:58:23;16.37;;;10.43;;
11616;SDS011;5864;52.998;9.068;2023-11-21T03:01:09;15.27;;;10.03;;
11616;SDS011;5864;52.998;9.068;2023-11-21T03:03:55;15.00;;;10.10;;
11616;SDS011;5864;52.998;9.068;2023-11-21T03:06:40;16.50;;;10.53;;
11616;SDS011;5864;52.998;9.068;2023-11-21T03:09:27;17.90;;;11.23;;
11616;SDS011;5864;52.998;9.068;2023-11-21T03:12:12;15.80;;;9.60;;
11616;SDS011;5864;52.998;9.068;2023-11-21T03:15:00;15.07;;;9.07;;
11616;SDS011;5864;52.998;9.068;2023-11-21T03:17:46;14.43;;;8.80;;
11616;SDS011;5864;52.998;9.068;2023-11-21T03:20:33;12.30;;;8.70;;
11616;SDS011;5864;52.998;9.068;2023-11-21T03:23:19;12.13;;;8.97;;
11616;SDS011;5864;52.998;9.068;2023-11-21T03:26:06;14.13;;;8.83;;
11616;SDS011;5864;52.998;9.068;2023-11-21T03:28:52;12.40;;;9.33;;
11616;SDS011;5864;52.998;9.068;2023-11-21T03:31:39;13.93;;;9.63;;
11616;SDS011;5864;52.998;9.068;2023-11-21T03:34:25;14.07;;;8.90;;
11616;SDS011;5864;52.998;9.068;2023-11-21T03:37:12;9.83;;;7.07;;
11616;SDS011;5864;52.998;9.068;2023-11-21T03:39:57;9.27;;;6.13;;
11616;SDS011;5864;52.998;9.068;2023-11-21T03:42:44;6.83;;;5.00;;
11616;SDS011;5864;52.998;9.068;2023-11-21T03:45:29;9.97;;;5.97;;
11616;SDS011;5864;52.998;9.068;2023-11-21T03:48:16;8.80;;;5.70;;
11616;SDS011;5864;52.998;9.068;2023-11-21T03:51:02;10.27;;;5.50;;
11616;SDS011;5864;52.998;9.068;2023-11-21T03:53:47;8.83;;;5.67;;
11616;SDS011;5864;52.998;9.068;2023-11-21T03:56:33;8.00;;;5.60;;
11616;SDS011;5864;52.998;9.068;2023-11-21T03:59:18;7.03;;;4.20;;
11616;SDS011;5864;52.998;9.068;2023-11-21T04:02:04;6.03;;;4.67;;
11616;SDS011;5864;52.998;9.068;2023-11-21T04:04:50;9.17;;;5.20;;
11616;SDS011;5864;52.998;9.068;2023-11-21T04:07:36;8.77;;;5.40;;
11616;SDS011;5864;52.998;9.068;2023-11-21T04:10:22;6.57;;;5.00;;
11616;SDS011;5864;52.998;9.068;2023-11-21T04:13:07;7.03;;;5.20;;
11616;SDS011;5864;52.998;9.068;2023-11-21T04:15:54;6.93;;;5.17;;
11616;SDS011;5864;52.998;9.068;2023-11-21T04:18:39;7.70;;;5.10;;
11616;SDS011;5864;52.998;9.068;2023-11-21T04:21:26;8.10;;;5.77;;
11616;SDS011;5864;52.998;9.068;2023-11-21T04:24:13;10.40;;;6.77;;
11616;SDS011;5864;52.998;9.068;2023-11-21T04:26:58;12.77;;;7.80;;
11616;SDS011;5864;52.998;9.068;2023-11-21T04:29:44;18.40;;;9.67;;
11616;SDS011;5864;52.998;9.068;2023-11-21T04:32:29;16.17;;;9.73;;
11616;SDS011;5864;52.998;9.068;2023-11-21T04:35:15;14.27;;;9.20;;
11616;SDS011;5864;52.998;9.068;2023-11-21T04:38:02;21.03;;;11.47;;
11616;SDS011;5864;52.998;9.068;2023-11-21T04:40:48;18.63;;;11.27;;
11616;SDS011;5864;52.998;9.068;2023-11-21T04:43:33;16.63;;;10.23;;
11616;SDS011;5864;52.998;9.068;2023-11-21T04:46:19;16.53;;;9.43;;
11616;SDS011;5864;52.998;9.068;2023-11-21T04:49:06;14.83;;;9.23;;
11616;SDS011;5864;52.998;9.068;2023-11-21T04:51:51;18.40;;;9.13;;
11616;SDS011;5864;52.998;9.068;2023-11-21T04:54:39;15.10;;;9.30;;
11616;SDS011;5864;52.998;9.068;2023-11-21T04:57:25;15.70;;;8.43;;
11616;SDS011;5864;52.998;9.068;2023-11-21T05:00:12;15.53;;;9.53;;
11616;SDS011;5864;52.998;9.068;2023-11-21T05:03:00;14.30;;;9.17;;
11616;SDS011;5864;52.998;9.068;2023-11-21T05:05:45;12.47;;;8.70;;
11616;SDS011;5864;52.998;9.068;2023-11-21T05:08:32;14.57;;;8.77;;
11616;SDS011;5864;52.998;9.068;2023-11-21T05:11:24;14.50;;;8.80;;
11616;SDS011;5864;52.998;9.068;2023-11-21T05:14:10;15.03;;;9.23;;
11616;SDS011;5864;52.998;9.068;2023-11-21T05:16:58;16.30;;;9.20;;
11616;SDS011;5864;52.998;9.068;2023-11-21T05:19:43;14.13;;;8.53;;
11616;SDS011;5864;52.998;9.068;2023-11-21T05:22:29;12.70;;;9.07;;
11616;SDS011;5864;52.998;9.068;2023-11-21T05:25:15;17.80;;;9.30;;
11616;SDS011;5864;52.998;9.068;2023-11-21T05:28:03;17.70;;;9.80;;
11616;SDS011;5864;52.998;9.068;2023-11-21T05:30:49;14.40;;;8.87;;
11616;SDS011;5864;52.998;9.068;2023-11-21T05:33:34;13.23;;;9.00;;
11616;SDS011;5864;52.998;9.068;2023-11-21T05:36:20;12.73;;;8.30;;
11616;SDS011;5864;52.998;9.068;2023-11-21T05:39:07;13.97;;;8.97;;
11616;SDS011;5864;52.998;9.068;2023-11-21T05:41:52;16.83;;;8.63;;
11616;SDS011;5864;52.998;9.068;2023-11-21T05:44:40;14.67;;;9.10;;
11616;SDS011;5864;52.998;9.068;2023-11-21T05:47:27;12.63;;;9.10;;
11616;SDS011;5864;52.998;9.068;2023-11-21T05:50:13;14.37;;;9.10;;
11616;SDS011;5864;52.998;9.068;2023-11-21T05:53:04;14.43;;;9.57;;
11616;SDS011;5864;52.998;9.068;2023-11-21T05:55:49;14.03;;;9.70;;
11616;SDS011;5864;52.998;9.068;2023-11-21T05:58:35;11.40;;;8.17;;
11616;SDS011;5864;52.998;9.068;2023-11-21T06:01:21;15.07;;;9.57;;
11616;SDS011;5864;52.998;9.068;2023-11-21T06:04:07;15.27;;;9.47;;
11616;SDS011;5864;52.998;9.068;2023-11-21T06:06:54;12.60;;;8.70;;
11616;SDS011;5864;52.998;9.068;2023-11-21T06:09:39;13.23;;;9.07;;
11616;SDS011;5864;52.998;9.068;2023-11-21T06:12:24;14.00;;;9.77;;
11616;SDS011;5864;52.998;9.068;2023-11-21T06:15:11;13.90;;;9.40;;
11616;SDS011;5864;52.998;9.068;2023-11-21T06:17:59;14.13;;;9.97;;
11616;SDS011;5864;52.998;9.068;2023-11-21T06:20:45;14.80;;;9.53;;
11616;SDS011;5864;52.998;9.068;2023-11-21T06:23:30;14.17;;;10.33;;
11616;SDS011;5864;52.998;9.068;2023-11-21T06:26:16;15.87;;;9.67;;
11616;SDS011;5864;52.998;9.068;2023-11-21T06:29:03;13.43;;;8.70;;
11616;SDS011;5864;52.998;9.068;2023-11-21T06:31:49;14.57;;;9.23;;
11616;SDS011;5864;52.998;9.068;2023-11-21T06:34:36;13.43;;;9.73;;
11616;SDS011;5864;52.998;9.068;2023-11-21T06:37:22;15.10;;;8.30;;
11616;SDS011;5864;52.998;9.068;2023-11-21T06:40:07;11.33;;;8.37;;
11616;SDS011;5864;52.998;9.068;2023-11-21T06:42:54;13.77;;;8.70;;
11616;SDS011;5864;52.998;9.068;2023-11-21T06:45:39;12.40;;;8.93;;
11616;SDS011;5864;52.998;9.068;2023-11-21T06:48:25;14.03;;;9.30;;
11616;SDS011;5864;52.998;9.068;2023-11-21T06:51:11;13.43;;;9.13;;
11616;SDS011;5864;52.998;9.068;2023-11-21T06:53:57;13.57;;;8.87;;
11616;SDS011;5864;52.998;9.068;2023-11-21T06:56:44;12.37;;;9.10;;
11616;SDS011;5864;52.998;9.068;2023-11-21T06:59:29;14.73;;;9.27;;
11616;SDS011;5864;52.998;9.068;2023-11-21T07:02:14;13.57;;;8.47;;
11616;SDS011;5864;52.998;9.068;2023-11-21T07:05:01;11.97;;;8.53;;
11616;SDS011;5864;52.998;9.068;2023-11-21T07:07:49;11.40;;;8.00;;
11616;SDS011;5864;52.998;9.068;2023-11-21T07:10:36;12.37;;;8.40;;
11616;SDS011;5864;52.998;9.068;2023-11-21T07:13:22;12.87;;;8.30;;
11616;SDS011;5864;52.998;9.068;2023-11-21T07:16:07;12.73;;;8.80;;
11616;SDS011;5864;52.998;9.068;2023-11-21T07:18:55;13.00;;;8.27;;
11616;SDS011;5864;52.998;9.068;2023-11-21T07:21:40;14.40;;;8.97;;
11616;SDS011;5864;52.998;9.068;2023-11-21T07:24:28;16.57;;;10.17;;
11616;SDS011;5864;52.998;9.068;2023-11-21T07:27:15;13.03;;;9.20;;
11616;SDS011;5864;52.998;9.068;2023-11-21T07:30:01;14.30;;;10.30;;
11616;SDS011;5864;52.998;9.068;2023-11-21T07:32:48;13.67;;;9.57;;
11616;SDS011;5864;52.998;9.068;2023-11-21T07:35:34;13.53;;;9.37;;
11616;SDS011;5864;52.998;9.068;2023-11-21T07:38:19;14.17;;;9.50;;
11616;SDS011;5864;52.998;9.068;2023-11-21T07:41:06;15.60;;;9.60;;
11616;SDS011;5864;52.998;9.068;2023-11-21T07:43:52;13.50;;;9.40;;
11616;SDS011;5864;52.998;9.068;2023-11-21T07:46:40;14.13;;;10.00;;
11616;SDS011;5864;52.998;9.068;2023-11-21T07:49:25;13.50;;;9.73;;
11616;SDS011;5864;52.998;9.068;2023-11-21T07:52:11;13.33;;;9.47;;
11616;SDS011;5864;52.998;9.068;2023-11-21T07:54:56;14.53;;;10.47;;
11616;SDS011;5864;52.998;9.068;2023-11-21T07:57:43;15.17;;;10.30;;
11616;SDS011;5864;52.998;9.068;2023-11-21T08:00:29;14.70;;;9.63;;
11616;SDS011;5864;52.998;9.068;2023-11-21T08:03:15;14.23;;;9.67;;
11616;SDS011;5864;52.998;9.068;2023-11-21T08:06:00;15.03;;;10.17;;
11616;SDS011;5864;52.998;9.068;2023-11-21T08:08:49;14.67;;;10.33;;
11616;SDS011;5864;52.998;9.068;2023-11-21T08:11:36;18.60;;;10.37;;
11616;SDS011;5864;52.998;9.068;2023-11-21T08:14:24;16.13;;;10.77;;
11616;SDS011;5864;52.998;9.068;2023-11-21T08:17:10;16.03;;;10.87;;
11616;SDS011;5864;52.998;9.068;2023-11-21T08:19:55;14.17;;;10.27;;
11616;SDS011;5864;52.998;9.068;2023-11-21T08:22:42;14.07;;;9.70;;
11616;SDS011;5864;52.998;9.068;2023-11-21T08:25:27;14.63;;;10.20;;
11616;SDS011;5864;52.998;9.068;2023-11-21T08:28:15;14.00;;;9.00;;
11616;SDS011;5864;52.998;9.068;2023-11-21T08:31:01;13.03;;;9.07;;
11616;SDS011;5864;52.998;9.068;2023-11-21T08:33:48;15.33;;;10.03;;
11616;SDS011;5864;52.998;9.068;2023-11-21T08:36:33;12.83;;;9.63;;
11616;SDS011;5864;52.998;9.068;2023-11-21T08:39:19;20.93;;;10.17;;
11616;SDS011;5864;52.998;9.068;2023-11-21T08:42:04;11.23;;;8.70;;
11616;SDS011;5864;52.998;9.068;2023-11-21T08:44:50;13.50;;;10.17;;
11616;SDS011;5864;52.998;9.068;2023-11-21T08:47:37;12.87;;;8.80;;
11616;SDS011;5864;52.998;9.068;2023-11-21T08:50:22;14.87;;;9.77;;
11616;SDS011;5864;52.998;9.068;2023-11-21T08:53:09;13.63;;;9.10;;
11616;SDS011;5864;52.998;9.068;2023-11-21T08:55:54;14.13;;;9.43;;
11616;SDS011;5864;52.998;9.068;2023-11-21T08:58:41;13.60;;;8.70;;
11616;SDS011;5864;52.998;9.068;2023-11-21T09:01:26;14.40;;;8.93;;
11616;SDS011;5864;52.998;9.068;2023-11-21T09:04:13;12.97;;;8.07;;
11616;SDS011;5864;52.998;9.068;2023-11-21T09:06:59;16.63;;;9.13;;
11616;SDS011;5864;52.998;9.068;2023-11-21T09:09:44;10.57;;;7.50;;
11616;SDS011;5864;52.998;9.068;2023-11-21T09:12:31;11.80;;;8.40;;
11616;SDS011;5864;52.998;9.068;2023-11-21T09:15:18;12.77;;;8.30;;
11616;SDS011;5864;52.998;9.068;2023-11-21T09:18:06;16.87;;;9.37;;
11616;SDS011;5864;52.998;9.068;2023-11-21T09:20:52;13.00;;;8.73;;
11616;SDS011;5864;52.998;9.068;2023-11-21T09:23:39;13.70;;;8.20;;
11616;SDS011;5864;52.998;9.068;2023-11-21T09:26:24;12.37;;;8.70;;
11616;SDS011;5864;52.998;9.068;2023-11-21T09:29:11;13.07;;;9.00;;
11616;SDS011;5864;52.998;9.068;2023-11-21T09:31:56;10.43;;;8.37;;
11616;SDS011;5864;52.998;9.068;2023-11-21T09:34:44;12.20;;;8.20;;
11616;SDS011;5864;52.998;9.068;2023-11-21T09:37:31;10.27;;;7.67;;
11616;SDS011;5864;52.998;9.068;2023-11-21T09:40:18;12.87;;;8.20;;
11616;SDS011;5864;52.998;9.068;2023-11-21T09:43:06;13.00;;;8.03;;
11616;SDS011;5864;52.998;9.068;2023-11-21T09:46:00;12.73;;;9.30;;
11616;SDS011;5864;52.998;9.068;2023-11-21T09:48:47;10.70;;;8.27;;
11616;SDS011;5864;52.998;9.068;2023-11-21T09:51:36;10.87;;;8.47;;
11616;SDS011;5864;52.998;9.068;2023-11-21T09:54:23;11.43;;;8.30;;
11616;SDS011;5864;52.998;9.068;2023-11-21T09:57:10;11.57;;;8.50;;
11616;SDS011;5864;52.998;9.068;2023-11-21T09:59:58;11.33;;;9.10;;
11616;SDS011;5864;52.998;9.068;2023-11-21T10:02:49;10.53;;;8.00;;
11616;SDS011;5864;52.998;9.068;2023-11-21T10:05:37;12.03;;;8.13;;
11616;SDS011;5864;52.998;9.068;2023-11-21T10:08:22;10.57;;;8.30;;
11616;SDS011;5864;52.998;9.068;2023-11-21T10:11:13;11.20;;;8.47;;
11616;SDS011;5864;52.998;9.068;2023-11-21T10:14:02;10.60;;;8.03;;
11616;SDS011;5864;52.998;9.068;2023-11-21T10:16:49;12.50;;;8.10;;
11616;SDS011;5864;52.998;9.068;2023-11-21T10:19:35;10.43;;;8.17;;
11616;SDS011;5864;52.998;9.068;2023-11-21T10:22:23;10.67;;;7.57;;
11616;SDS011;5864;52.998;9.068;2023-11-21T10:25:09;10.07;;;7.97;;
11616;SDS011;5864;52.998;9.068;2023-11-21T10:27:59;12.27;;;7.77;;
11616;SDS011;5864;52.998;9.068;2023-11-21T10:30:48;12.03;;;7.83;;
11616;SDS011;5864;52.998;9.068;2023-11-21T10:33:35;11.63;;;8.37;;
11616;SDS011;5864;52.998;9.068;2023-11-21T10:36:26;10.60;;;8.13;;
11616;SDS011;5864;52.998;9.068;2023-11-21T10:39:16;10.83;;;7.97;;
11616;SDS011;5864;52.998;9.068;2023-11-21T10:42:02;10.20;;;7.90;;
11616;SDS011;5864;52.998;9.068;2023-11-21T10:44:53;9.27;;;6.80;;
11616;SDS011;5864;52.998;9.068;2023-11-21T10:47:39;12.03;;;8.40;;
11616;SDS011;5864;52.998;9.068;2023-11-21T10:50:27;9.80;;;7.80;;
11616;SDS011;5864;52.998;9.068;2023-11-21T10:53:12;8.80;;;6.80;;
11616;SDS011;5864;52.998;9.068;2023-11-21T10:56:00;10.70;;;7.30;;
11616;SDS011;5864;52.998;9.068;2023-11-21T10:58:49;10.43;;;7.80;;
11616;SDS011;5864;52.998;9.068;2023-11-21T11:01:38;10.60;;;8.10;;
11616;SDS011;5864;52.998;9.068;2023-11-21T11:04:24;9.17;;;7.67;;
11616;SDS011;5864;52.998;9.068;2023-11-21T11:07:11;10.07;;;7.87;;
11616;SDS011;5864;52.998;9.068;2023-11-21T11:09:59;12.10;;;8.57;;
11616;SDS011;5864;52.998;9.068;2023-11-21T11:12:46;12.60;;;8.63;;
11616;SDS011;5864;52.998;9.068;2023-11-21T11:15:32;10.83;;;8.27;;
11616;SDS011;5864;52.998;9.068;2023-11-21T11:18:19;10.30;;;7.33;;
11616;SDS011;5864;52.998;9.068;2023-11-21T11:21:07;9.83;;;7.60;;
11616;SDS011;5864;52.998;9.068;2023-11-21T11:24:08;10.50;;;8.00;;
11616;SDS011;5864;52.998;9.068;2023-11-21T11:27:11;10.73;;;7.87;;
11616;SDS011;5864;52.998;9.068;2023-11-21T11:30:09;8.83;;;7.30;;
11616;SDS011;5864;52.998;9.068;2023-11-21T11:33:10;10.20;;;7.30;;
11616;SDS011;5864;52.998;9.068;2023-11-21T11:36:13;10.40;;;7.97;;
11616;SDS011;5864;52.998;9.068;2023-11-21T11:39:03;10.27;;;8.03;;
11616;SDS011;5864;52.998;9.068;2023-11-21T11:42:08;10.37;;;8.20;;
11616;SDS011;5864;52.998;9.068;2023-11-21T11:44:57;10.63;;;7.97;;
11616;SDS011;5864;52.998;9.068;2023-11-21T11:47:44;12.17;;;8.27;;
11616;SDS011;5864;52.998;9.068;2023-11-21T11:50:32;13.23;;;9.03;;
11616;SDS011;5864;52.998;9.068;2023-11-21T11:53:20;10.57;;;8.13;;
11616;SDS011;5864;52.998;9.068;2023-11-21T11:56:19;8.10;;;6.80;;
11616;SDS011;5864;52.998;9.068;2023-11-21T11:59:11;9.43;;;7.40;;
11616;SDS011;5864;52.998;9.068;2023-11-21T12:01:58;8.53;;;6.57;;
11616;SDS011;5864;52.998;9.068;2023-11-21T12:04:43;8.97;;;6.63;;
11616;SDS011;5864;52.998;9.068;2023-11-21T12:07:38;9.13;;;6.67;;
11616;SDS011;5864;52.998;9.068;2023-11-21T12:10:31;9.20;;;6.77;;
11616;SDS011;5864;52.998;9.068;2023-11-21T12:13:17;10.53;;;6.20;;
11616;SDS011;5864;52.998;9.068;2023-11-21T12:16:04;9.17;;;7.17;;
11616;SDS011;5864;52.998;9.068;2023-11-21T12:18:51;9.60;;;6.33;;
11616;SDS011;5864;52.998;9.068;2023-11-21T12:21:37;8.77;;;6.93;;
11616;SDS011;5864;52.998;9.068;2023-11-21T12:24:24;8.10;;;6.30;;
11616;SDS011;5864;52.998;9.068;2023-11-21T12:27:14;7.73;;;6.53;;
11616;SDS011;5864;52.998;9.068;2023-11-21T12:30:00;9.33;;;6.17;;
11616;SDS011;5864;52.998;9.068;2023-11-21T12:32:47;8.10;;;6.70;;
11616;SDS011;5864;52.998;9.068;2023-11-21T12:35:35;8.67;;;6.30;;
11616;SDS011;5864;52.998;9.068;2023-11-21T12:38:20;8.77;;;5.80;;
11616;SDS011;5864;52.998;9.068;2023-11-21T12:41:09;8.33;;;6.07;;
11616;SDS011;5864;52.998;9.068;2023-11-21T12:43:56;8.07;;;5.90;;
11616;SDS011;5864;52.998;9.068;2023-11-21T12:46:43;6.43;;;5.73;;
11616;SDS011;5864;52.998;9.068;2023-11-21T12:49:30;9.33;;;6.13;;
11616;SDS011;5864;52.998;9.068;2023-11-21T12:52:18;9.27;;;6.53;;
11616;SDS011;5864;52.998;9.068;2023-11-21T12:55:03;8.17;;;6.03;;
11616;SDS011;5864;52.998;9.068;2023-11-21T12:57:52;8.67;;;6.77;;
11616;SDS011;5864;52.998;9.068;2023-11-21T13:00:40;9.13;;;6.23;;
11616;SDS011;5864;52.998;9.068;2023-11-21T13:03:28;7.00;;;5.83;;
11616;SDS011;5864;52.998;9.068;2023-11-21T13:06:13;9.77;;;6.40;;
11616;SDS011;5864;52.998;9.068;2023-11-21T13:09:00;6.77;;;5.50;;
11616;SDS011;5864;52.998;9.068;2023-11-21T13:11:45;7.70;;;5.80;;
11616;SDS011;5864;52.998;9.068;2023-11-21T13:14:32;7.00;;;5.27;;
11616;SDS011;5864;52.998;9.068;2023-11-21T13:17:20;7.67;;;5.77;;
11616;SDS011;5864;52.998;9.068;2023-11-21T13:20:09;7.00;;;5.20;;
11616;SDS011;5864;52.998;9.068;2023-11-21T13:22:59;6.03;;;4.83;;
11616;SDS011;5864;52.998;9.068;2023-11-21T13:25:45;8.10;;;4.40;;
11616;SDS011;5864;52.998;9.068;2023-11-21T13:28:33;12.07;;;4.87;;
11616;SDS011;5864;52.998;9.068;2023-11-21T13:31:19;4.87;;;4.30;;
11616;SDS011;5864;52.998;9.068;2023-11-21T13:34:11;6.53;;;4.80;;
11616;SDS011;5864;52.998;9.068;2023-11-21T13:36:58;5.93;;;4.30;;
11616;SDS011;5864;52.998;9.068;2023-11-21T13:39:44;6.70;;;4.20;;
11616;SDS011;5864;52.998;9.068;2023-11-21T13:42:34;5.40;;;4.10;;
11616;SDS011;5864;52.998;9.068;2023-11-21T13:45:19;4.10;;;3.70;;
11616;SDS011;5864;52.998;9.068;2023-11-21T13:48:09;4.37;;;3.97;;
11616;SDS011;5864;52.998;9.068;2023-11-21T13:50:58;4.13;;;3.40;;
11616;SDS011;5864;52.998;9.068;2023-11-21T13:53:51;4.27;;;3.73;;
11616;SDS011;5864;52.998;9.068;2023-11-21T13:56:40;3.50;;;3.20;;
11616;SDS011;5864;52.998;9.068;2023-11-21T13:59:28;4.77;;;3.67;;
11616;SDS011;5864;52.998;9.068;2023-11-21T14:02:15;4.77;;;3.80;;
11616;SDS011;5864;52.998;9.068;2023-11-21T14:05:01;3.57;;;3.27;;
11616;SDS011;5864;52.998;9.068;2023-11-21T14:07:54;5.27;;;3.57;;
11616;SDS011;5864;52.998;9.068;2023-11-21T14:10:45;3.73;;;3.13;;
11616;SDS011;5864;52.998;9.068;2023-11-21T14:13:34;5.20;;;3.50;;
11616;SDS011;5864;52.998;9.068;2023-11-21T14:16:20;3.67;;;3.23;;
11616;SDS011;5864;52.998;9.068;2023-11-21T14:19:06;4.57;;;3.40;;
11616;SDS011;5864;52.998;9.068;2023-11-21T14:21:59;4.33;;;3.37;;
11616;SDS011;5864;52.998;9.068;2023-11-21T14:24:46;4.63;;;3.77;;
11616;SDS011;5864;52.998;9.068;2023-11-21T14:27:34;3.80;;;3.40;;
11616;SDS011;5864;52.998;9.068;2023-11-21T14:30:19;6.27;;;3.50;;
11616;SDS011;5864;52.998;9.068;2023-11-21T14:33:06;3.80;;;3.40;;
11616;SDS011;5864;52.998;9.068;2023-11-21T14:35:52;4.03;;;3.47;;
11616;SDS011;5864;52.998;9.068;2023-11-21T14:38:37;4.97;;;3.63;;
11616;SDS011;5864;52.998;9.068;2023-11-21T14:41:25;5.53;;;3.97;;
11616;SDS011;5864;52.998;9.068;2023-11-21T14:44:12;5.87;;;3.87;;
11616;SDS011;5864;52.998;9.068;2023-11-21T14:47:00;6.00;;;4.20;;
11616;SDS011;5864;52.998;9.068;2023-11-21T14:49:50;4.97;;;3.80;;
11616;SDS011;5864;52.998;9.068;2023-11-21T14:52:41;5.03;;;3.90;;
11616;SDS011;5864;52.998;9.068;2023-11-21T14:55:39;5.70;;;3.80;;
11616;SDS011;5864;52.998;9.068;2023-11-21T14:58:40;6.50;;;4.20;;
11616;SDS011;5864;52.998;9.068;2023-11-21T15:01:26;5.37;;;3.90;;
11616;SDS011;5864;52.998;9.068;2023-11-21T15:04:27;6.47;;;4.23;;
11616;SDS011;5864;52.998;9.068;2023-11-21T15:07:20;4.13;;;3.73;;
11616;SDS011;5864;52.998;9.068;2023-11-21T15:10:04;5.43;;;4.17;;
11616;SDS011;5864;52.998;9.068;2023-11-21T15:12:55;6.17;;;3.87;;
11616;SDS011;5864;52.998;9.068;2023-11-21T15:15:40;4.43;;;3.33;;
11616;SDS011;5864;52.998;9.068;2023-11-21T15:18:27;4.13;;;3.47;;
11616;SDS011;5864;52.998;9.068;2023-11-21T15:21:13;5.07;;;4.33;;
11616;SDS011;5864;52.998;9.068;2023-11-21T15:23:59;4.83;;;4.00;;
11616;SDS011;5864;52.998;9.068;2023-11-21T15:26:44;4.93;;;3.80;;
11616;SDS011;5864;52.998;9.068;2023-11-21T15:29:30;5.37;;;4.07;;
11616;SDS011;5864;52.998;9.068;2023-11-21T15:32:17;5.50;;;4.00;;
11616;SDS011;5864;52.998;9.068;2023-11-21T15:35:03;4.83;;;3.90;;
11616;SDS011;5864;52.998;9.068;2023-11-21T15:37:48;4.63;;;4.07;;
11616;SDS011;5864;52.998;9.068;2023-11-21T15:40:35;5.73;;;3.77;;
11616;SDS011;5864;52.998;9.068;2023-11-21T15:43:21;6.53;;;4.10;;
11616;SDS011;5864;52.998;9.068;2023-11-21T15:46:07;6.87;;;4.37;;
11616;SDS011;5864;52.998;9.068;2023-11-21T15:48:54;5.03;;;4.17;;
11616;SDS011;5864;52.998;9.068;2023-11-21T15:51:40;5.80;;;3.83;;
11616;SDS011;5864;52.998;9.068;2023-11-21T15:54:30;5.57;;;4.00;;
11616;SDS011;5864;52.998;9.068;2023-11-21T15:57:18;6.57;;;4.30;;
11616;SDS011;5864;52.998;9.068;2023-11-21T16:00:06;6.37;;;4.10;;
11616;SDS011;5864;52.998;9.068;2023-11-21T16:02:59;4.43;;;4.03;;
11616;SDS011;5864;52.998;9.068;2023-11-21T16:05:47;7.67;;;5.47;;
11616;SDS011;5864;52.998;9.068;2023-11-21T16:08:33;6.77;;;4.27;;
11616;SDS011;5864;52.998;9.068;2023-11-21T16:11:19;7.40;;;4.90;;
11616;SDS011;5864;52.998;9.068;2023-11-21T16:14:05;5.47;;;4.83;;
11616;SDS011;5864;52.998;9.068;2023-11-21T16:16:52;5.23;;;4.00;;
11616;SDS011;5864;52.998;9.068;2023-11-21T16:19:40;6.00;;;4.23;;
11616;SDS011;5864;52.998;9.068;2023-11-21T16:22:27;4.93;;;3.90;;
11616;SDS011;5864;52.998;9.068;2023-11-21T16:25:12;4.63;;;3.80;;
11616;SDS011;5864;52.998;9.068;2023-11-21T16:27:59;5.40;;;4.10;;
11616;SDS011;5864;52.998;9.068;2023-11-21T16:30:49;6.23;;;4.60;;
11616;SDS011;5864;52.998;9.068;2023-11-21T16:33:36;5.47;;;3.83;;
11616;SDS011;5864;52.998;9.068;2023-11-21T16:36:22;6.33;;;4.07;;
11616;SDS011;5864;52.998;9.068;2023-11-21T16:39:09;5.10;;;3.73;;
11616;SDS011;5864;52.998;9.068;2023-11-21T16:41:56;5.27;;;3.67;;
11616;SDS011;5864;52.998;9.068;2023-11-21T16:44:41;4.70;;;3.97;;
11616;SDS011;5864;52.998;9.068;2023-11-21T16:47:28;3.93;;;3.53;;
11616;SDS011;5864;52.998;9.068;2023-11-21T16:50:13;3.73;;;3.17;;